Date,TemperatureHighF,TemperatureAvgF,TemperatureLowF,DewpointHighF,DewpointAvgF,DewpointLowF,HumidityHigh,HumidityAvg,HumidityLow,PressureMaxIn,PressureMinIn,WindSpeedMaxMPH,WindSpeedAvgMPH,GustSpeedMaxMPH,PrecipitationSumIn
2013-3-1,39,25,12,22,14,4,76,63,47,29.68,29.61,8,0,8,0.00
2013-3-2,52,20,0,25,7,-6,85,60,34,29.69,29.51,7,0,7,0.00
2013-3-3,42,27,12,19,12,3,72,56,38,29.52,29.33,9,1,9,0.00
2013-3-4,29,26,22,21,19,16,85,76,63,29.38,29.28,14,4,14,0.00
2013-3-5,38,27,22,25,21,17,85,78,61,29.63,29.31,8,0,8,0.08
2013-3-6,41,23,1,23,14,-6,80,68,47,29.75,29.62,7,0,7,0.06
2013-3-7,52,20,-2,30,9,-8,83,64,37,29.72,29.62,0,0,0,0.00
2013-3-8,59,33,13,34,22,8,85,68,39,29.66,29.43,8,0,8,0.00
2013-3-9,38,36,33,34,32,27,88,85,76,29.44,29.05,11,2,11,0.80
2013-3-10,36,34,30,31,29,26,89,82,74,29.28,29.12,8,3,8,0.08
2013-3-11,35,28,21,25,21,15,87,77,64,29.21,29.12,10,1,10,0.08
2013-3-12,45,29,19,22,18,12,80,63,39,29.53,29.20,14,4,14,0.02
2013-3-13,46,35,19,24,18,11,74,50,39,29.73,29.52,9,4,9,0.00
2013-3-14,60,35,23,35,23,16,83,64,38,29.60,29.37,7,0,7,0.00
2013-3-15,38,32,26,31,26,20,86,80,75,29.37,29.15,7,1,7,0.04
2013-3-16,45,28,14,24,17,6,86,63,39,29.57,29.22,6,0,6,0.02
2013-3-17,42,22,7,21,10,-1,74,61,38,29.61,29.24,14,2,14,0.00
2013-3-18,32,23,12,28,16,5,86,73,55,29.24,28.98,27,10,27,0.00
2013-3-19,30,16,6,9,4,-1,76,59,40,29.56,29.21,20,8,20,0.00
2013-3-20,33,16,4,7,2,-4,69,54,32,29.58,29.48,19,4,19,0.00
2013-3-21,9,7,5,0,-2,-4,68,66,65,29.48,29.47,0,0,0,0.00
2013-3-23,26,26,26,18,18,17,70,69,69,29.47,29.46,0,0,0,0.00
2013-3-24,46,31,24,27,21,16,78,67,45,29.45,29.31,10,1,10,0.00
2013-3-25,54,34,22,26,19,14,74,57,33,29.57,29.37,10,1,10,0.00
2013-3-26,53,31,21,30,19,14,76,64,41,29.65,29.56,8,1,8,0.00
2013-3-27,70,35,12,38,19,6,86,56,26,29.69,29.64,0,0,0,0.00
2013-3-28,53,33,15,30,21,9,84,63,39,29.69,29.62,6,0,6,0.00
2013-3-29,59,40,25,37,29,19,82,66,44,29.64,29.49,4,0,4,0.00
2013-3-30,48,48,48,39,39,39,70,70,70,29.23,29.22,5,5,5,0.02
2013-3-31,44,40,38,30,24,20,73,54,45,29.28,29.20,12,8,12,0.10